Time;durP1;ratioP1;P1;durP2;ratioP2;P2;SDS_P1;SDS_P2;PMS_P1;PMS_P2;Temp;Humidity;BMP_temperature;BMP_pressure;BME280_temperature;BME280_humidity;BME280_pressure;Samples;Min_cycle;Max_cycle;Signal;HPM_P1;HPM_P2
2022/10/07 00:02:15;;;;;;;2.88;1.10;;;9.50;99.90;;;;;;4973178;28;20038;-80
2022/10/07 00:04:44;;;;;;;2.75;1.05;;;9.60;99.90;;;;;;4973442;28;20023;-80
2022/10/07 00:07:11;;;;;;;3.63;1.20;;;9.60;99.90;;;;;;4974809;28;20076;-79
2022/10/07 00:09:37;;;;;;;3.38;1.15;;;9.60;99.90;;;;;;4973305;28;20387;-80
2022/10/07 00:12:02;;;;;;;5.78;1.27;;;9.60;99.90;;;;;;4973300;28;20022;-80
2022/10/07 00:14:28;;;;;;;3.22;1.38;;;9.60;99.90;;;;;;4973203;28;20053;-80
2022/10/07 00:16:54;;;;;;;2.65;1.00;;;9.60;99.90;;;;;;4973287;28;20026;-80
2022/10/07 00:19:20;;;;;;;2.70;1.10;;;9.60;99.90;;;;;;4989305;28;20027;-80
2022/10/07 00:21:46;;;;;;;3.10;1.20;;;9.60;99.90;;;;;;4971480;28;20059;-81
2022/10/07 00:24:14;;;;;;;3.05;1.00;;;9.60;99.90;;;;;;4973230;28;20105;-81
2022/10/07 00:26:40;;;;;;;3.08;1.30;;;9.60;99.90;;;;;;4974737;28;20105;-80
2022/10/07 00:29:06;;;;;;;4.32;1.40;;;9.60;99.90;;;;;;4973411;28;20046;-81
2022/10/07 00:31:36;;;;;;;2.65;1.15;;;9.50;99.90;;;;;;4973085;28;20494;-81
2022/10/07 00:34:07;;;;;;;3.42;1.20;;;9.50;99.90;;;;;;4973511;28;20074;-80
2022/10/07 00:36:36;;;;;;;5.03;1.10;;;9.50;99.90;;;;;;4974032;28;20029;-82
2022/10/07 00:39:15;;;;;;;3.53;1.85;;;9.50;99.90;;;;;;4975005;28;20463;-81
2022/10/07 00:41:44;;;;;;;3.95;1.00;;;9.50;99.90;;;;;;4974940;28;20475;-81
2022/10/07 00:44:36;;;;;;;3.42;1.00;;;9.50;99.90;;;;;;4973668;28;20237;-81
2022/10/07 00:47:28;;;;;;;5.68;1.17;;;9.50;99.90;;;;;;4965381;28;20031;-81
2022/10/07 00:50:13;;;;;;;3.47;1.30;;;9.50;99.90;;;;;;4966720;28;20482;-81
2022/10/07 00:52:49;;;;;;;4.15;1.23;;;9.50;99.90;;;;;;4972779;28;20033;-81
2022/10/07 00:55:23;;;;;;;4.28;1.40;;;9.40;99.90;;;;;;4972956;28;20027;-80
2022/10/07 00:57:53;;;;;;;3.50;1.17;;;9.40;99.90;;;;;;4965623;28;20027;-81
2022/10/07 01:00:22;;;;;;;4.40;1.10;;;9.30;99.90;;;;;;4980069;28;20035;-81
2022/10/07 01:02:48;;;;;;;4.22;1.05;;;9.30;99.90;;;;;;4961547;28;20066;-82
2022/10/07 01:05:14;;;;;;;2.72;1.10;;;9.30;99.90;;;;;;4976523;28;20118;-81
2022/10/07 01:07:41;;;;;;;5.18;1.30;;;9.30;99.90;;;;;;4976817;28;20030;-81
2022/10/07 01:10:10;;;;;;;3.38;1.30;;;9.30;99.90;;;;;;4976484;28;20026;-81
2022/10/07 01:12:55;;;;;;;4.43;1.70;;;9.20;99.90;;;;;;4978186;28;20050;-80
2022/10/07 01:15:33;;;;;;;4.25;1.50;;;9.20;99.90;;;;;;4976831;28;20062;-81
2022/10/07 01:18:30;;;;;;;3.17;1.35;;;9.10;99.90;;;;;;4976844;28;20030;-81
2022/10/07 01:21:06;;;;;;;3.58;1.30;;;9.10;99.90;;;;;;4982541;28;20030;-81
2022/10/07 01:24:05;;;;;;;4.47;1.30;;;9.00;99.90;;;;;;4993368;28;20118;-80
2022/10/07 01:27:00;;;;;;;3.17;1.45;;;9.00;99.90;;;;;;4979003;28;20023;-80
2022/10/07 01:29:40;;;;;;;3.50;1.20;;;9.00;99.90;;;;;;4998396;28;20022;-81
2022/10/07 01:32:32;;;;;;;4.28;1.38;;;9.00;99.90;;;;;;5000090;28;20070;-81
2022/10/07 01:35:01;;;;;;;4.03;1.40;;;9.00;99.90;;;;;;4987460;28;20135;-81
2022/10/07 01:37:34;;;;;;;4.78;1.35;;;8.90;99.90;;;;;;4979378;28;20485;-81
2022/10/07 01:40:12;;;;;;;5.20;1.60;;;8.90;99.90;;;;;;4977609;28;20062;-81
2022/10/07 01:42:39;;;;;;;5.05;1.45;;;8.90;99.90;;;;;;4976873;28;20015;-81
2022/10/07 01:45:09;;;;;;;5.68;1.50;;;8.80;99.90;;;;;;4978280;28;20046;-82
2022/10/07 01:47:35;;;;;;;4.80;1.50;;;8.80;99.90;;;;;;4976247;28;20474;-81
2022/10/07 01:50:00;;;;;;;3.55;1.65;;;8.80;99.90;;;;;;4976399;28;20037;-82
2022/10/07 01:52:42;;;;;;;4.88;2.05;;;8.70;99.90;;;;;;4976219;28;20035;-82
2022/10/07 01:55:30;;;;;;;3.75;1.52;;;8.70;99.90;;;;;;4977052;28;20046;-81
2022/10/07 01:58:26;;;;;;;5.43;1.85;;;8.70;99.90;;;;;;4977263;28;20038;-82
2022/10/07 02:01:17;;;;;;;3.78;1.73;;;8.70;99.90;;;;;;4962171;28;20027;-82
2022/10/07 02:03:43;;;;;;;5.13;1.40;;;8.60;99.90;;;;;;4985657;28;20121;-82
2022/10/07 02:06:32;;;;;;;3.28;1.48;;;8.60;99.90;;;;;;4991794;28;20475;-82
2022/10/07 02:09:01;;;;;;;3.80;1.40;;;8.60;99.90;;;;;;4972151;28;20035;-82
2022/10/07 02:11:31;;;;;;;5.18;1.92;;;8.60;99.90;;;;;;4992157;28;20100;-82
2022/10/07 02:13:58;;;;;;;6.32;1.70;;;8.60;99.90;;;;;;4975027;28;20070;-81
2022/10/07 02:16:35;;;;;;;5.10;1.63;;;8.70;99.90;;;;;;4975526;28;20038;-82
2022/10/07 02:19:06;;;;;;;4.25;1.63;;;8.60;99.90;;;;;;4975688;28;20030;-82
2022/10/07 02:21:35;;;;;;;7.35;1.38;;;8.60;99.90;;;;;;4975712;28;20042;-82
2022/10/07 02:24:02;;;;;;;6.38;2.17;;;8.60;99.90;;;;;;4977126;28;20026;-81
2022/10/07 02:26:32;;;;;;;6.90;1.83;;;8.60;99.90;;;;;;4976908;28;20042;-80
2022/10/07 02:29:04;;;;;;;6.22;1.85;;;8.50;99.90;;;;;;4976929;28;20033;-80
2022/10/07 02:31:32;;;;;;;5.00;1.88;;;8.50;99.90;;;;;;4975726;28;20387;-80
2022/10/07 02:34:02;;;;;;;4.28;1.98;;;8.50;99.90;;;;;;4974845;28;20041;-80
2022/10/07 02:36:33;;;;;;;4.45;1.98;;;8.50;99.90;;;;;;4959586;28;20030;-80
2022/10/07 02:39:00;;;;;;;4.57;1.48;;;8.50;99.90;;;;;;4962347;28;20065;-79
2022/10/07 02:41:31;;;;;;;5.78;1.80;;;8.40;99.90;;;;;;4992061;28;20053;-80
2022/10/07 02:44:24;;;;;;;4.75;1.75;;;8.40;99.90;;;;;;4991681;28;20022;-80
2022/10/07 02:47:05;;;;;;;4.30;1.75;;;8.40;99.90;;;;;;4975181;28;20023;-81
2022/10/07 02:49:36;;;;;;;2.95;1.50;;;8.40;99.90;;;;;;4975227;28;20054;-81
2022/10/07 02:52:15;;;;;;;3.47;1.40;;;8.40;99.90;;;;;;4975003;28;20454;-81
2022/10/07 02:55:06;;;;;;;3.55;1.60;;;8.40;99.90;;;;;;4972162;28;20061;-81
2022/10/07 02:57:37;;;;;;;4.30;1.52;;;8.40;99.90;;;;;;4976118;28;20019;-81
2022/10/07 03:00:05;;;;;;;4.10;1.40;;;8.30;99.90;;;;;;4977850;28;20022;-81
2022/10/07 03:02:40;;;;;;;4.90;2.25;;;8.30;99.90;;;;;;4963248;28;20047;-82
2022/10/07 03:05:10;;;;;;;3.58;1.27;;;8.30;99.90;;;;;;4977489;28;20102;-80
2022/10/07 03:07:36;;;;;;;6.50;1.83;;;8.30;99.90;;;;;;4977288;28;20090;-82
2022/10/07 03:10:04;;;;;;;3.58;1.30;;;8.30;99.90;;;;;;4961791;28;20074;-81
2022/10/07 03:12:29;;;;;;;5.90;1.55;;;8.20;99.90;;;;;;4976790;28;20073;-80
2022/10/07 03:14:57;;;;;;;5.43;2.38;;;8.20;99.90;;;;;;4979158;28;20031;-81
2022/10/07 03:17:23;;;;;;;5.60;1.80;;;8.20;99.90;;;;;;4996464;28;20019;-79
2022/10/07 03:19:48;;;;;;;3.38;1.50;;;8.20;99.90;;;;;;4994013;28;20057;-79
2022/10/07 03:22:14;;;;;;;5.05;1.90;;;8.20;99.90;;;;;;4987177;28;20114;-79
2022/10/07 03:24:41;;;;;;;5.90;1.75;;;8.20;99.90;;;;;;4977196;28;20078;-80
2022/10/07 03:27:07;;;;;;;5.43;1.58;;;8.30;99.90;;;;;;4975686;28;20019;-80
2022/10/07 03:29:36;;;;;;;7.80;1.50;;;8.30;99.90;;;;;;4975345;28;20023;-81
2022/10/07 03:32:02;;;;;;;4.20;1.70;;;8.30;99.90;;;;;;4975057;28;20023;-81
2022/10/07 03:34:34;;;;;;;5.28;1.67;;;8.20;99.90;;;;;;4976502;28;20443;-81
2022/10/07 03:37:00;;;;;;;4.03;1.70;;;8.30;99.90;;;;;;4978468;28;20018;-80
2022/10/07 03:39:27;;;;;;;5.00;1.58;;;8.20;99.90;;;;;;4976876;28;20033;-81
2022/10/07 03:41:53;;;;;;;3.78;1.63;;;8.20;99.90;;;;;;4977099;28;20031;-80
2022/10/07 03:44:21;;;;;;;5.88;1.63;;;8.20;99.90;;;;;;4977138;28;20062;-80
2022/10/07 03:46:51;;;;;;;5.05;1.33;;;8.20;99.90;;;;;;4977833;28;20429;-80
2022/10/07 03:49:19;;;;;;;3.58;1.30;;;8.20;99.90;;;;;;4977310;28;20034;-81
2022/10/07 03:51:45;;;;;;;3.75;1.23;;;8.20;99.90;;;;;;4974823;28;20034;-80
2022/10/07 03:54:13;;;;;;;5.38;1.77;;;8.10;99.90;;;;;;4975790;28;20037;-80
2022/10/07 03:56:41;;;;;;;3.25;1.48;;;8.20;99.90;;;;;;4975707;28;20441;-79
2022/10/07 03:59:07;;;;;;;3.90;1.63;;;8.20;99.90;;;;;;4974005;28;20106;-80
2022/10/07 04:01:32;;;;;;;4.47;1.42;;;8.20;99.90;;;;;;4968921;28;20114;-81
2022/10/07 04:04:00;;;;;;;3.13;1.40;;;8.10;99.90;;;;;;4968173;28;20062;-81
2022/10/07 04:06:26;;;;;;;4.85;1.80;;;8.10;99.90;;;;;;4974208;28;20122;-80
2022/10/07 04:08:54;;;;;;;3.97;1.58;;;8.10;99.90;;;;;;4974828;28;20026;-81
2022/10/07 04:11:20;;;;;;;5.03;2.50;;;8.10;99.90;;;;;;4974145;28;21040;-81
2022/10/07 04:13:49;;;;;;;5.32;1.90;;;8.10;99.90;;;;;;4973950;28;20031;-81
2022/10/07 04:16:15;;;;;;;4.35;1.63;;;8.10;99.90;;;;;;4975619;28;20375;-82
2022/10/07 04:18:42;;;;;;;5.03;1.20;;;8.10;99.90;;;;;;4974488;28;20033;-81
2022/10/07 04:21:09;;;;;;;5.50;1.75;;;8.20;99.90;;;;;;4974302;28;20100;-81
2022/10/07 04:23:36;;;;;;;3.78;1.48;;;8.30;99.90;;;;;;4974313;28;20015;-81
2022/10/07 04:26:08;;;;;;;3.13;1.42;;;8.30;99.90;;;;;;4975810;28;20026;-81
2022/10/07 04:28:33;;;;;;;4.40;1.63;;;8.40;99.90;;;;;;4975449;28;20030;-81
2022/10/07 04:31:03;;;;;;;4.75;1.17;;;8.40;99.90;;;;;;4974279;28;20042;-82
2022/10/07 04:33:29;;;;;;;3.63;1.38;;;8.40;99.90;;;;;;4974218;28;20057;-81
2022/10/07 04:35:55;;;;;;;3.15;1.30;;;8.40;99.90;;;;;;4974283;28;20399;-81
2022/10/07 04:38:21;;;;;;;3.97;1.35;;;8.40;99.90;;;;;;4978150;28;20035;-82
2022/10/07 04:40:49;;;;;;;4.22;1.58;;;8.50;99.90;;;;;;4977929;28;20491;-81
2022/10/07 04:43:25;;;;;;;3.53;1.38;;;8.40;99.90;;;;;;4978079;28;20035;-81
2022/10/07 04:45:58;;;;;;;2.92;1.05;;;8.50;99.90;;;;;;4977162;28;20023;-82
2022/10/07 04:48:26;;;;;;;3.10;1.20;;;8.50;99.90;;;;;;4977716;28;20026;-81
2022/10/07 04:50:52;;;;;;;5.30;1.30;;;8.50;99.90;;;;;;4964256;28;20497;-80
2022/10/07 04:53:23;;;;;;;4.22;1.25;;;8.50;99.90;;;;;;4993987;28;20426;-81
2022/10/07 04:55:55;;;;;;;3.83;1.33;;;8.50;99.90;;;;;;4992924;28;20026;-82
2022/10/07 04:58:23;;;;;;;4.60;1.50;;;8.40;99.90;;;;;;4977519;28;20034;-81
2022/10/07 05:00:51;;;;;;;2.80;1.23;;;8.50;99.90;;;;;;4977756;28;20378;-82
2022/10/07 05:03:19;;;;;;;4.22;1.33;;;8.50;99.90;;;;;;4974836;28;20057;-82
2022/10/07 05:05:47;;;;;;;4.93;1.75;;;8.50;99.90;;;;;;4985264;28;20003;-82
2022/10/07 05:08:15;;;;;;;2.58;1.20;;;8.50;99.90;;;;;;5001748;28;20003;-81
2022/10/07 05:10:43;;;;;;;5.30;1.30;;;8.50;99.90;;;;;;4991307;28;20074;-81
2022/10/07 05:13:12;;;;;;;3.50;1.45;;;8.60;99.90;;;;;;4978142;28;20073;-81
2022/10/07 05:15:51;;;;;;;5.65;1.00;;;8.60;99.90;;;;;;4962323;28;20038;-80
2022/10/07 05:18:19;;;;;;;4.35;1.40;;;8.60;99.90;;;;;;4977591;28;20026;-82
2022/10/07 05:20:48;;;;;;;3.80;1.23;;;8.60;99.90;;;;;;4961725;28;20118;-81
2022/10/07 05:23:16;;;;;;;4.28;1.30;;;8.60;99.90;;;;;;4977179;28;20030;-81
2022/10/07 05:25:43;;;;;;;3.28;1.30;;;8.60;99.90;;;;;;4978508;28;20034;-81
2022/10/07 05:28:20;;;;;;;4.25;1.73;;;8.60;99.90;;;;;;4960114;28;20581;-81
2022/10/07 05:31:07;;;;;;;3.30;1.10;;;8.70;99.90;;;;;;4976195;28;20038;-81
2022/10/07 05:33:34;;;;;;;3.90;1.05;;;8.70;99.90;;;;;;4975257;28;20395;-82
2022/10/07 05:36:03;;;;;;;4.80;1.30;;;8.70;99.90;;;;;;4976803;28;20471;-82
2022/10/07 05:38:56;;;;;;;3.53;1.50;;;8.70;99.90;;;;;;4977098;28;20170;-82
2022/10/07 05:41:28;;;;;;;3.83;0.93;;;8.80;99.90;;;;;;4978276;28;20031;-81
2022/10/07 05:43:54;;;;;;;2.45;1.20;;;8.80;99.90;;;;;;4977595;28;20039;-81
2022/10/07 05:46:22;;;;;;;3.25;1.15;;;8.80;99.90;;;;;;4958453;28;20067;-80
2022/10/07 05:48:52;;;;;;;2.67;1.10;;;8.80;99.90;;;;;;4973775;28;20034;-82
2022/10/07 05:51:21;;;;;;;3.40;0.98;;;8.70;99.90;;;;;;4975356;28;20042;-82
2022/10/07 05:53:55;;;;;;;2.60;1.30;;;8.70;99.90;;;;;;4974976;28;20050;-81
2022/10/07 05:56:29;;;;;;;3.22;0.93;;;8.70;99.90;;;;;;4975677;28;20035;-82
2022/10/07 05:58:56;;;;;;;2.30;0.90;;;8.60;99.90;;;;;;4973080;28;20533;-82
2022/10/07 06:01:24;;;;;;;2.05;1.17;;;8.60;99.90;;;;;;4974711;28;20034;-82
2022/10/07 06:03:52;;;;;;;3.83;1.02;;;8.60;99.90;;;;;;4975486;28;20363;-82
2022/10/07 06:06:18;;;;;;;5.32;1.30;;;8.60;99.90;;;;;;4987842;28;20067;-81
2022/10/07 06:08:54;;;;;;;3.55;1.00;;;8.60;99.90;;;;;;4975512;28;20073;-81
2022/10/07 06:14:23;;;;;;;4.57;1.33;;;8.50;99.90;;;;;;4975461;28;20045;-82
2022/10/07 06:16:52;;;;;;;3.00;1.63;;;8.50;99.90;;;;;;4958896;28;20033;-83
2022/10/07 06:19:21;;;;;;;3.97;1.15;;;8.50;99.90;;;;;;4974690;28;20058;-81
2022/10/07 06:21:49;;;;;;;3.17;1.10;;;8.50;99.90;;;;;;4974202;28;20037;-82
2022/10/07 06:24:33;;;;;;;3.83;1.42;;;8.50;99.90;;;;;;4942611;28;20058;-82
2022/10/07 06:26:59;;;;;;;4.65;1.88;;;8.70;99.90;;;;;;4973906;28;20030;-83
2022/10/07 06:29:28;;;;;;;7.40;1.30;;;8.70;99.90;;;;;;4957385;28;20470;-82
2022/10/07 06:32:01;;;;;;;5.43;1.80;;;8.80;99.90;;;;;;4974150;28;20432;-83
2022/10/07 06:34:28;;;;;;;5.00;2.00;;;8.90;99.90;;;;;;4974810;28;20027;-82
2022/10/07 06:36:56;;;;;;;6.07;1.52;;;8.90;99.90;;;;;;4973002;28;20049;-83
2022/10/07 06:39:23;;;;;;;5.45;1.40;;;9.00;99.90;;;;;;4975959;28;20027;-83
2022/10/07 06:41:51;;;;;;;6.97;1.48;;;9.10;99.90;;;;;;4974607;28;20358;-83
2022/10/07 06:44:23;;;;;;;3.33;1.42;;;9.10;99.90;;;;;;4974627;28;20043;-84
2022/10/07 06:46:49;;;;;;;4.63;1.55;;;9.10;99.90;;;;;;4975216;28;20105;-83
2022/10/07 06:49:15;;;;;;;6.60;1.88;;;9.20;99.90;;;;;;4974217;28;20061;-83
2022/10/07 06:51:41;;;;;;;7.82;1.77;;;9.20;99.90;;;;;;4995444;28;20054;-82
2022/10/07 06:54:07;;;;;;;4.28;1.35;;;9.30;99.90;;;;;;4994826;28;20023;-83
2022/10/07 06:56:34;;;;;;;3.53;1.63;;;9.40;99.90;;;;;;4997391;28;20098;-83
2022/10/07 06:59:03;;;;;;;5.07;1.55;;;9.40;99.90;;;;;;4998250;28;20007;-83
2022/10/07 07:01:28;;;;;;;4.40;1.45;;;9.50;99.90;;;;;;4968874;28;20026;-82
2022/10/07 07:03:54;;;;;;;7.15;1.60;;;9.50;99.90;;;;;;4973549;28;20131;-82
2022/10/07 07:06:20;;;;;;;9.50;1.90;;;9.60;99.90;;;;;;4976141;28;20027;-82
2022/10/07 07:08:48;;;;;;;6.22;2.55;;;9.70;99.90;;;;;;4974047;28;20030;-82
2022/10/07 07:11:36;;;;;;;6.40;2.33;;;9.70;99.90;;;;;;4969034;28;20107;-82
2022/10/07 07:14:04;;;;;;;5.03;1.90;;;9.90;99.90;;;;;;4966389;28;20046;-82
2022/10/07 07:16:31;;;;;;;7.30;1.98;;;10.00;99.90;;;;;;4973441;28;20019;-82
2022/10/07 07:19:07;;;;;;;5.18;1.85;;;10.20;99.90;;;;;;4973565;28;20035;-82
2022/10/07 07:21:34;;;;;;;8.73;2.05;;;10.30;99.90;;;;;;4957788;28;20119;-81
2022/10/07 07:24:05;;;;;;;8.10;2.13;;;10.50;99.90;;;;;;4972532;28;20042;-82
2022/10/07 07:26:32;;;;;;;6.15;1.90;;;10.60;99.90;;;;;;4971559;28;20126;-82
2022/10/07 07:29:04;;;;;;;7.72;2.28;;;10.70;99.90;;;;;;4974434;28;20033;-82
2022/10/07 07:31:34;;;;;;;7.97;2.13;;;10.70;99.90;;;;;;4973521;28;20022;-83
2022/10/07 07:34:06;;;;;;;8.00;2.72;;;10.80;99.90;;;;;;4971566;28;20030;-82
2022/10/07 07:36:35;;;;;;;8.57;2.88;;;11.00;99.90;;;;;;4957231;28;20018;-83
2022/10/07 07:39:12;;;;;;;6.88;2.95;;;11.10;99.90;;;;;;4969345;28;20050;-81
2022/10/07 07:41:40;;;;;;;6.93;2.83;;;11.10;99.90;;;;;;4971908;28;20471;-80
2022/10/07 07:44:10;;;;;;;6.93;2.78;;;11.20;99.90;;;;;;4972454;28;20031;-83
2022/10/07 07:46:43;;;;;;;8.52;2.70;;;11.20;99.90;;;;;;4973964;28;20015;-83
2022/10/07 07:49:13;;;;;;;6.90;3.10;;;11.20;99.90;;;;;;4969954;28;20039;-80
2022/10/07 07:51:43;;;;;;;10.20;3.45;;;11.20;99.90;;;;;;4973340;28;20026;-82
2022/10/07 07:54:13;;;;;;;10.85;3.53;;;11.20;99.90;;;;;;4972870;28;20109;-82
2022/10/07 07:56:43;;;;;;;9.30;3.10;;;11.20;99.90;;;;;;4959926;28;20101;-80
2022/10/07 07:59:10;;;;;;;8.55;3.17;;;11.20;99.90;;;;;;4973727;28;20037;-81
2022/10/07 08:01:37;;;;;;;8.85;2.85;;;11.20;99.90;;;;;;4966594;28;20031;-82
2022/10/07 08:04:12;;;;;;;7.53;2.45;;;11.40;99.90;;;;;;4973839;28;20050;-80
2022/10/07 08:06:40;;;;;;;7.53;2.72;;;11.50;99.90;;;;;;4972521;28;20053;-82
2022/10/07 08:09:07;;;;;;;7.60;2.10;;;11.70;99.90;;;;;;4972035;28;20030;-82
2022/10/07 08:11:34;;;;;;;9.32;2.28;;;11.90;99.90;;;;;;4972002;28;20458;-82
2022/10/07 08:14:02;;;;;;;8.50;2.20;;;12.00;99.90;;;;;;4959989;28;20061;-82
2022/10/07 08:16:37;;;;;;;7.35;2.42;;;12.10;99.90;;;;;;4976844;28;20023;-82
2022/10/07 08:19:05;;;;;;;5.72;2.05;;;12.30;99.90;;;;;;4970586;28;20030;-82
2022/10/07 08:21:32;;;;;;;5.55;1.50;;;12.40;99.90;;;;;;4959812;28;20085;-82
2022/10/07 08:24:13;;;;;;;5.03;1.58;;;12.40;99.90;;;;;;4958299;28;20035;-81
2022/10/07 08:26:39;;;;;;;3.40;1.40;;;12.50;99.90;;;;;;4975830;28;20031;-80
2022/10/07 08:29:06;;;;;;;4.38;1.35;;;12.70;99.90;;;;;;4975498;28;20382;-81
2022/10/07 08:31:35;;;;;;;6.00;1.15;;;12.80;99.90;;;;;;4989998;28;20097;-81
2022/10/07 08:34:08;;;;;;;3.35;1.10;;;13.00;99.90;;;;;;4977144;28;20529;-81
2022/10/07 08:36:35;;;;;;;;;;;13.20;99.90;;;;;;4976264;28;20479;-81
2022/10/07 08:39:06;;;;;;;5.85;1.67;;;13.20;99.90;;;;;;4976219;28;20235;-80
2022/10/07 08:41:53;;;;;;;6.15;2.17;;;13.30;99.90;;;;;;4976301;28;20110;-81
2022/10/07 08:44:51;;;;;;;6.57;2.40;;;13.30;99.90;;;;;;4986431;28;20086;-82
2022/10/07 08:47:38;;;;;;;9.70;2.80;;;13.30;99.90;;;;;;4974910;28;20033;-82
2022/10/07 08:50:13;;;;;;;6.07;2.13;;;13.40;99.90;;;;;;4989776;28;20047;-81
2022/10/07 08:53:03;;;;;;;4.82;1.77;;;13.50;99.90;;;;;;4981275;28;20039;-82
2022/10/07 08:56:03;;;;;;;9.82;2.45;;;13.70;99.90;;;;;;4992277;28;20041;-82
2022/10/07 08:58:53;;;;;;;5.38;1.98;;;14.00;99.90;;;;;;4985333;28;20049;-81
2022/10/07 09:01:40;;;;;;;5.32;1.90;;;14.20;99.90;;;;;;4996155;28;20022;-81
2022/10/07 09:04:41;;;;;;;4.53;1.73;;;14.40;99.90;;;;;;4973881;28;21075;-81
2022/10/07 09:07:12;;;;;;;7.43;1.80;;;14.70;99.90;;;;;;4965040;28;20078;-81
2022/10/07 09:09:54;;;;;;;5.72;1.50;;;14.90;99.90;;;;;;4971658;28;20030;-82
2022/10/07 09:12:43;;;;;;;6.85;1.98;;;15.20;99.90;;;;;;4971819;28;20055;-81
2022/10/07 09:15:49;;;;;;;8.15;1.77;;;15.90;99.90;;;;;;4966346;28;20536;-83
2022/10/07 09:18:38;;;;;;;6.90;1.58;;;17.90;99.90;;;;;;4969626;28;20023;-81
2022/10/07 09:21:31;;;;;;;3.00;1.15;;;19.50;99.90;;;;;;4987330;28;20026;-81
2022/10/07 09:24:19;;;;;;;9.15;1.35;;;19.70;99.90;;;;;;4968071;28;20042;-81
2022/10/07 09:26:54;;;;;;;8.68;1.80;;;19.20;99.90;;;;;;4987798;28;20046;-82
2022/10/07 09:29:23;;;;;;;8.93;1.83;;;18.50;99.90;;;;;;4969649;28;20042;-82
2022/10/07 09:31:59;;;;;;;7.28;1.63;;;17.90;99.90;;;;;;4972010;28;20474;-81
2022/10/07 09:34:28;;;;;;;6.93;1.70;;;17.40;99.90;;;;;;4967251;28;20487;-82
2022/10/07 09:37:27;;;;;;;7.78;1.58;;;17.00;99.90;;;;;;4957458;28;20122;-82
2022/10/07 09:39:56;;;;;;;4.10;1.40;;;16.70;99.90;;;;;;4986538;28;20138;-81
2022/10/07 09:42:37;;;;;;;5.32;1.27;;;16.40;99.90;;;;;;4969403;28;20019;-81
2022/10/07 09:45:30;;;;;;;6.22;1.98;;;16.20;99.90;;;;;;4970664;28;20121;-82
2022/10/07 09:48:07;;;;;;;4.28;1.23;;;16.10;99.90;;;;;;4972182;28;20035;-82
2022/10/07 09:50:41;;;;;;;7.40;1.60;;;16.00;99.90;;;;;;4974519;28;20035;-81
2022/10/07 09:53:20;;;;;;;5.45;1.48;;;16.00;99.90;;;;;;4974273;28;20026;-81
2022/10/07 09:55:47;;;;;;;5.45;1.30;;;16.00;99.90;;;;;;4973405;28;20030;-81
2022/10/07 09:58:24;;;;;;;5.90;1.30;;;16.10;99.90;;;;;;4973765;28;20023;-81
2022/10/07 10:00:59;;;;;;;4.95;1.40;;;16.20;99.90;;;;;;4972234;28;20026;-82
2022/10/07 10:03:33;;;;;;;6.88;1.70;;;16.20;99.90;;;;;;4953957;28;20118;-81
2022/10/07 10:06:05;;;;;;;8.88;1.52;;;16.30;99.90;;;;;;4968970;28;20038;-81
2022/10/07 10:08:35;;;;;;;6.32;1.77;;;16.30;99.90;;;;;;4971505;28;20034;-81
2022/10/07 10:11:06;;;;;;;6.93;1.23;;;16.30;99.90;;;;;;4983992;28;20039;-82
2022/10/07 10:13:39;;;;;;;6.82;1.92;;;16.30;99.90;;;;;;4971997;28;20395;-81
2022/10/07 10:16:32;;;;;;;6.40;1.17;;;16.30;99.90;;;;;;4981598;28;20023;-80
2022/10/07 10:19:02;;;;;;;8.25;1.13;;;16.40;99.90;;;;;;4987883;28;20518;-81
2022/10/07 10:21:35;;;;;;;6.60;1.17;;;16.50;99.90;;;;;;4970003;28;20038;-82
2022/10/07 10:24:14;;;;;;;5.70;1.48;;;16.70;99.90;;;;;;4972079;28;20038;-82
2022/10/07 10:27:08;;;;;;;5.75;1.50;;;16.90;99.90;;;;;;4971560;28;20035;-81
2022/10/07 10:29:49;;;;;;;7.35;1.27;;;17.10;99.90;;;;;;4972881;28;20418;-81
2022/10/07 10:32:42;;;;;;;5.38;1.38;;;17.30;99.90;;;;;;4961890;28;20478;-84
2022/10/07 10:35:33;;;;;;;4.68;1.02;;;17.50;99.90;;;;;;4981959;28;20510;-81
2022/10/07 10:38:22;;;;;;;6.95;1.35;;;17.50;99.90;;;;;;4959021;28;20456;-81
2022/10/07 10:41:02;;;;;;;4.38;1.00;;;17.60;99.90;;;;;;4985700;28;20031;-82
2022/10/07 10:43:48;;;;;;;4.30;1.00;;;17.70;99.90;;;;;;4969705;28;20031;-82
2022/10/07 10:46:22;;;;;;;7.38;1.42;;;17.80;99.90;;;;;;4963722;28;20022;-81
2022/10/07 10:49:18;;;;;;;5.25;1.25;;;18.10;99.90;;;;;;4971957;28;20038;-81
2022/10/07 10:51:51;;;;;;;3.95;1.08;;;18.60;99.90;;;;;;4972564;28;20062;-82
2022/10/07 10:54:49;;;;;;;5.47;1.20;;;19.10;99.90;;;;;;4991715;28;20094;-82
2022/10/07 10:57:24;;;;;;;7.05;1.27;;;20.00;99.90;;;;;;5008744;28;20078;-82
2022/10/07 11:00:21;;;;;;;4.72;1.20;;;21.40;99.90;;;;;;5008966;28;20036;-83
2022/10/07 11:03:12;;;;;;;4.15;1.13;;;22.90;99.90;;;;;;4979749;28;20110;-82
2022/10/07 11:05:41;;;;;;;8.10;1.67;;;24.00;99.90;;;;;;4970781;28;20136;-82
2022/10/07 11:08:30;;;;;;;5.32;1.40;;;24.60;99.90;;;;;;4971545;28;20029;-81
2022/10/07 11:10:57;;;;;;;6.80;1.60;;;25.00;99.90;;;;;;4969088;28;20042;-81
2022/10/07 11:13:50;;;;;;;5.30;1.38;;;25.20;99.90;;;;;;4971687;28;20046;-80
2022/10/07 11:16:20;;;;;;;5.03;1.20;;;25.40;99.90;;;;;;4971751;28;20023;-82
2022/10/07 11:19:19;;;;;;;4.38;1.00;;;25.40;99.90;;;;;;4970108;28;20033;-81
2022/10/07 11:21:50;;;;;;;4.32;1.02;;;25.90;99.90;;;;;;4969941;28;20069;-81
2022/10/07 11:24:43;;;;;;;5.97;1.30;;;26.30;99.90;;;;;;4969989;28;20027;-82
2022/10/07 11:27:38;;;;;;;4.28;1.10;;;26.50;99.20;;;;;;4967129;28;21137;-80
2022/10/07 11:30:21;;;;;;;5.38;1.02;;;26.50;99.80;;;;;;4983567;28;20058;-81
2022/10/07 11:33:10;;;;;;;7.97;1.63;;;27.00;99.90;;;;;;4971565;28;20058;-81
2022/10/07 11:35:43;;;;;;;7.03;1.65;;;27.60;98.60;;;;;;4969198;28;20063;-80
2022/10/07 11:38:11;;;;;;;5.88;1.40;;;27.40;97.70;;;;;;4970062;28;20510;-81
2022/10/07 11:40:44;;;;;;;7.05;1.30;;;27.20;97.70;;;;;;4972322;28;20035;-81
2022/10/07 11:43:32;;;;;;;3.90;1.38;;;27.20;96.60;;;;;;4953892;28;20035;-83
2022/10/07 11:46:26;;;;;;;4.80;1.25;;;26.70;95.00;;;;;;4966551;28;20042;-82
2022/10/07 11:48:59;;;;;;;6.13;1.40;;;26.50;95.70;;;;;;4967523;28;20141;-85
2022/10/07 11:51:57;;;;;;;6.57;1.60;;;26.40;95.10;;;;;;4969509;28;20023;-82
2022/10/07 11:54:27;;;;;;;7.13;1.92;;;26.30;94.60;;;;;;4967968;28;20057;-82
2022/10/07 11:56:58;;;;;;;4.75;1.27;;;26.30;95.30;;;;;;4953927;28;20054;-83
2022/10/07 11:59:36;;;;;;;3.55;0.95;;;26.70;95.60;;;;;;4969848;28;20038;-82
2022/10/07 12:02:03;;;;;;;6.40;1.30;;;27.00;95.20;;;;;;4968188;28;20038;-83
2022/10/07 12:04:29;;;;;;;6.80;1.50;;;27.30;95.00;;;;;;4965588;28;20070;-83
2022/10/07 12:07:38;;;;;;;3.85;1.15;;;27.30;94.40;;;;;;4961596;28;20678;-82
2022/10/07 12:10:20;;;;;;;6.13;1.40;;;27.50;94.60;;;;;;4984638;28;20390;-81
2022/10/07 12:12:52;;;;;;;4.18;1.20;;;27.50;93.50;;;;;;4965196;28;20038;-83
2022/10/07 12:15:44;;;;;;;3.63;1.10;;;27.70;94.10;;;;;;4985477;28;20430;-81
2022/10/07 12:18:19;;;;;;;4.78;1.20;;;27.90;93.40;;;;;;4980314;28;20486;-82
2022/10/07 12:20:58;;;;;;;5.70;1.20;;;28.10;93.80;;;;;;4982108;28;20533;-80
2022/10/07 12:23:35;;;;;;;6.32;1.10;;;28.50;93.40;;;;;;4967103;28;20134;-82
2022/10/07 12:26:05;;;;;;;3.55;1.13;;;28.80;93.20;;;;;;4972637;28;20086;-82
2022/10/07 12:28:47;;;;;;;4.07;1.13;;;28.80;93.70;;;;;;4971070;28;20039;-82
2022/10/07 12:31:25;;;;;;;4.50;1.05;;;28.70;93.10;;;;;;4970168;28;20496;-83
2022/10/07 12:34:08;;;;;;;7.40;1.40;;;28.60;93.40;;;;;;4966258;28;20473;-82
2022/10/07 12:36:39;;;;;;;3.85;1.15;;;28.30;92.20;;;;;;4958621;28;20030;-83
2022/10/07 12:39:12;;;;;;;5.50;0.90;;;28.50;92.50;;;;;;4979708;28;20442;-81
2022/10/07 12:41:45;;;;;;;5.45;0.90;;;29.00;92.80;;;;;;4958435;28;20344;-83
2022/10/07 12:44:44;;;;;;;4.72;1.40;;;29.30;92.20;;;;;;4965988;28;20454;-82
2022/10/07 12:47:26;;;;;;;5.90;1.17;;;28.60;92.20;;;;;;4965673;28;20094;-84
2022/10/07 12:50:06;;;;;;;2.97;0.98;;;28.30;92.50;;;;;;4971045;28;20142;-83
2022/10/07 12:52:51;;;;;;;3.65;1.20;;;28.30;92.70;;;;;;4975241;28;20038;-81
2022/10/07 12:55:32;;;;;;;4.22;1.10;;;28.40;92.60;;;;;;5008198;28;20015;-83
2022/10/07 13:02:07;;;;;;;4.45;1.52;;;28.60;91.70;;;;;;4967364;28;20042;-82
2022/10/07 13:05:10;;;;;;;4.60;0.98;;;28.60;92.20;;;;;;4934286;29;20097;-82
2022/10/07 13:07:58;;;;;;;3.08;0.98;;;28.80;92.20;;;;;;4944587;28;20031;-82
2022/10/07 13:10:42;;;;;;;4.57;1.13;;;29.00;92.60;;;;;;4928333;29;20071;-83
2022/10/07 13:13:28;;;;;;;3.40;0.90;;;29.10;92.40;;;;;;4948883;28;20027;-82
2022/10/07 13:16:10;;;;;;;4.10;1.00;;;29.20;92.30;;;;;;4945539;29;20424;-81
2022/10/07 13:18:54;;;;;;;6.28;1.17;;;29.40;92.40;;;;;;4945434;29;20507;-82
2022/10/07 13:21:36;;;;;;;3.95;1.00;;;29.50;91.80;;;;;;4944883;29;20057;-82
2022/10/07 13:24:02;;;;;;;3.67;0.98;;;29.50;92.10;;;;;;4924677;28;20039;-82
2022/10/07 13:26:32;;;;;;;3.83;1.00;;;29.40;92.00;;;;;;4944336;28;20741;-81
2022/10/07 13:29:03;;;;;;;3.90;0.90;;;29.20;92.20;;;;;;4907256;28;20102;-83
2022/10/07 13:31:33;;;;;;;5.85;1.10;;;29.30;92.20;;;;;;4942384;28;20030;-83
2022/10/07 13:34:16;;;;;;;4.30;1.08;;;29.30;92.50;;;;;;4934350;28;20842;-83
2022/10/07 13:36:46;;;;;;;5.65;1.50;;;29.10;91.80;;;;;;4960382;28;20073;-83
2022/10/07 13:39:26;;;;;;;3.38;1.10;;;28.70;91.50;;;;;;4965943;28;20050;-82